Shawmut, Montana
Current Conditions -  °F | °C
As of 3:15 PM on Friday 24 Oct 2014 (Local Time) from KMVH Reporting Station
Overcast Overcast  
Wind Chill: 50°   Ceiling: 5000
Heat Index: 50°   Visibility: 10mi
Dew Point: 43°   Wind: 9mph
Humidity: 76%   Direction: 200°SSW
Pressure: 30.07"   Gusts: NA
Location:  46.35°N, 109.52°W
Report Text: KMVH 242115Z AUTO 20008KT 10SM SCT043 BKN050 OVC055 10/06 A3007 RMK A01
Loading
Personal Weather Stations






























Interactive Weather Map
Tropical Storm Tracking
New forecast layout! Learn more

10-Day Weather Forecast

Advertisements
Track Severe Weather on mobile